Nearby METAR Reports

 

KPAO - Palo Alto, California, USA
Distance from station: NNW 0mi, 0km
Updated: Sat, 18-May-2024 8:47pm PDT
NOT Current
Sky Clear
Sky Clear
 Wind from WSW
Wind: WSW 6 mph , 9 km/h
Temperature: 57°F , 14°C
Dew Point: 50°F , 10°C
Humidity: 77%
Barometer: 29.97 inHg , 1014.9 hPa
Clouds: Sky Clear
Visibility: 10 miles , 16 km
2024/05/19 03:47 KPAO 190347Z 24005KT 10SM SKC 14/10 A2997 RMK LAST
KSQL - San Carlos Airpo, California, USA
Distance from station: WNW 7mi, 8km
Updated: Sun, 19-May-2024 1:35am PDT
Clear
Clear
 Wind from W
Wind: W 3 mph , 6 km/h
Temperature: 55°F , 13°C
Dew Point: 48°F , 9°C
Humidity: 77%
Barometer: 30.02 inHg , 1016.6 hPa
Clouds: Clear
Visibility: 9 miles , 14 km
2024/05/19 08:35 KSQL 190835Z AUTO 26003KT 9SM CLR 13/09 A3002 RMK AO2
 
KSJC - San Jose, California, USA
Distance from station: ESE 11mi, 13km
Updated: Sun, 19-May-2024 12:53am PDT
Clear
Clear
 Wind from SSE
Wind: SSE 12 mph , 19 km/h
Temperature: 57°F , 14°C
Dew Point: 48°F , 9°C
Humidity: 72%
Barometer: 30.01 inHg , 1016.3 hPa
Clouds: Clear
Visibility: 10 miles , 16 km
2024/05/19 07:53 KSJC 190753Z AUTO 16010KT 10SM CLR 14/09 A3001 RMK AO2 SLP162 T01390089 402560139 $
KHWD - Hayward, California, USA
Distance from station: N 12mi, 14km
Updated: Sun, 19-May-2024 12:54am PDT
Overcast
Overcast
 Wind from W
Wind: W 9 mph , 15 km/h
Temperature: 59°F , 15°C
Dew Point: 48°F , 9°C
Humidity: 68%
Barometer: 30.01 inHg , 1016.3 hPa
Clouds: Overcast
Visibility: 10 miles , 16 km
Cloud details: Overcast 1800 ft
2024/05/19 07:54 KHWD 190754Z AUTO 26008KT 10SM OVC018 15/09 A3001 RMK AO2 SLP169 T01500094 402220144
 
KSFO - San Francisco, California, USA
Distance from station: NW 16mi, 18km
Updated: Sun, 19-May-2024 12:56am PDT
Few Clouds
Few Clouds
 Wind from W
Wind: W 8 mph , 13 km/h
Temperature: 55°F , 13°C
Dew Point: 46°F , 8°C
Humidity: 72%
Barometer: 30.01 inHg , 1016.3 hPa
Clouds: Few Clouds
Visibility: 10 miles , 16 km
Cloud details: Few Clouds 900 ft
Few Clouds 1800 ft
2024/05/19 07:56 KSFO 190756Z 27007KT 10SM FEW009 FEW018 13/08 A3001 RMK AO2 SLP161 T01280083 402060122 $
KRHV - San Jose/Reid, California, USA
Distance from station: ESE 16mi, 18km
Updated: Sat, 18-May-2024 9:55pm PDT
NOT Current
Sky Clear
Sky Clear
 Wind from N
Wind: N 6 mph , 9 km/h
Temperature: 61°F , 16°C
Dew Point: 52°F , 11°C
Humidity: 72%
Barometer: 29.99 inHg , 1015.6 hPa
Clouds: Sky Clear
Visibility: 10 miles , 16 km
2024/05/19 04:55 KRHV 190455Z 01005KT 10SM SKC 16/11 A2999 RMK LAST
 
KOAK - Oakland, California, USA
Distance from station: NNW 16mi, 18km
Updated: Sun, 19-May-2024 12:53am PDT
Scattered
Scattered
 Wind from W
Wind: W 9 mph , 15 km/h
Temperature: 55°F , 13°C
Dew Point: 50°F , 10°C
Humidity: 82%
Barometer: 30.02 inHg , 1016.6 hPa
Clouds: Scattered
Visibility: 10 miles , 16 km
Cloud details: Scattered 2000 ft
2024/05/19 07:53 KOAK 190753Z 26008KT 10SM SCT020 13/10 A3002 RMK AO2 SLP165 T01280100 401940122
KHAF - Half Moon Bay, California, USA
Distance from station: W 19mi, 22km
Updated: Sun, 19-May-2024 1:35am PDT
Overcast
Overcast
 Wind from varies
Wind: varies 6 mph , 9 km/h, Gust: 12 mph , 19 km/h
Temperature: 54°F , 12°C
Dew Point: 50°F , 10°C
Humidity: 88%
Barometer: 30.04 inHg , 1017.3 hPa
Clouds: Overcast
Visibility: 7 miles , 11 km
Cloud details: Overcast 1700 ft
2024/05/19 08:35 KHAF 190835Z AUTO VRB05G10KT 7SM OVC017 12/10 A3004 RMK AO2
 
KLVK - Livermore, California, USA
Distance from station: NE 20mi, 23km
Updated: Sun, 19-May-2024 12:53am PDT
Few Clouds
Few Clouds
 Wind from W
Wind: W 7 mph , 11 km/h
Temperature: 54°F , 12°C
Dew Point: 48°F , 9°C
Humidity: 82%
Barometer: 29.98 inHg , 1015.2 hPa
Clouds: Few Clouds
Visibility: 10 miles , 16 km
Cloud details: Few Clouds 1400 ft
2024/05/19 07:53 KLVK 190753Z AUTO 27006KT 10SM FEW014 12/09 A2998 RMK AO2 SLP149 T01170094 402440117
KC83 - Byron, California, USA
Distance from station: NE 32mi, 40km
Updated: Sun, 19-May-2024 1:30am PDT
Clear
Clear
 Wind from WSW
Wind: WSW 29 mph , 46 km/h, Gust: 39 mph , 63 km/h
Temperature: 57°F , 14°C
Dew Point: 52°F , 11°C
Humidity: 82%
Barometer: 29.92 inHg , 1013.2 hPa
Clouds: Clear
Visibility: 10 miles , 16 km
2024/05/19 08:30 KC83 190830Z AUTO 24025G34KT 10SM CLR 14/11 A2992 RMK AO2
 
KCCR - Concord, California, USA
Distance from station: N 33mi, 37km
Updated: Sun, 19-May-2024 12:53am PDT
Clear
Clear
 Wind from SSW
Wind: SSW 15 mph , 24 km/h, Gust: 22 mph , 35 km/h
Temperature: 55°F , 13°C
Dew Point: 46°F , 8°C
Humidity: 72%
Barometer: 29.97 inHg , 1014.9 hPa
Clouds: Clear
Visibility: 10 miles , 16 km
2024/05/19 07:53 KCCR 190753Z AUTO 20013G19KT 10SM CLR 13/08 A2997 RMK AO2 SLP133 T01280083 402170128
KWVI - Watsonville, California, USA
Distance from station: SSE 35mi, 40km
Updated: Sun, 19-May-2024 12:53am PDT
Overcast
Overcast
 Wind from W
Wind: W 3 mph , 6 km/h
Temperature: 54°F , 12°C
Dew Point: 48°F , 9°C
Humidity: 82%
Barometer: 30.06 inHg , 1017.9 hPa
Clouds: Overcast
Visibility: 10 miles , 16 km
Cloud details: Overcast 1200 ft
2024/05/19 07:53 KWVI 190753Z AUTO 27003KT 10SM OVC012 12/09 A3006 RMK AO2 SLP177 T01170094 401560111
 
KAPC - Napa, California, USA
Distance from station: N 46mi, 53km
Updated: Sun, 19-May-2024 12:54am PDT
Overcast
Overcast
 Wind from WNW
Wind: WNW 9 mph , 15 km/h
Temperature: 52°F , 11°C
Dew Point: 48°F , 9°C
Humidity: 88%
Barometer: 29.98 inHg , 1015.2 hPa
Clouds: Overcast
Visibility: 10 miles , 16 km
Cloud details: Overcast 1300 ft
2024/05/19 07:54 KAPC 190754Z AUTO 30008KT 10SM OVC013 11/09 A2998 RMK AO2 SLP144 T01110089 401890111
KDVO - Novato/Gnoss Fld, California, USA
Distance from station: NNW 46mi, 53km
Updated: Sun, 19-May-2024 1:35am PDT
Clear
Clear
 Wind from calm
Wind: Calm
Temperature: 48°F , 9°C
Dew Point: 48°F , 9°C
Humidity: 100%
Barometer: 29.99 inHg , 1015.6 hPa
Clouds: Clear
Visibility: 10 miles , 16 km
2024/05/19 08:35 KDVO 190835Z AUTO 00000KT 10SM CLR 09/09 A2999 RMK AO2
 
KCVH - Hollister Muni, California, USA
Distance from station: SE 48mi, 55km
Updated: Sun, 19-May-2024 1:35am PDT
Overcast
Overcast
 Wind from WSW
Wind: WSW 8 mph , 13 km/h
Temperature: 54°F , 12°C
Dew Point: 50°F , 10°C
Humidity: 88%
Barometer: 30.06 inHg , 1017.9 hPa
Clouds: Overcast
Visibility: 7 miles , 11 km
Cloud details: Overcast 1100 ft
2024/05/19 08:35 KCVH 190835Z AUTO 25007KT 7SM OVC011 12/10 A3006 RMK A01
KSUU - Travis Afb/Fairf, California, USA
Distance from station: ENE 49mi, 56km
Updated: Sun, 19-May-2024 12:55am PDT
Clear
Clear
 Wind from WSW
Wind: WSW 26 mph , 43 km/h, Gust: 33 mph , 54 km/h
Temperature: 54°F , 12°C
Dew Point: 48°F , 9°C
Humidity: 82%
Barometer: 29.90 inHg , 1012.5 hPa
Clouds: Clear
Visibility: 10 miles , 16 km
2024/05/19 07:55 KSUU 190755Z AUTO 25023G29KT 10SM CLR 12/09 A2990 RMK AO2 PK WND 25032/11 SLP131 T01180090 402310116 $
 
KSCK - Stockton, California, USA
Distance from station: ENE 49mi, 56km
Updated: Sun, 19-May-2024 12:55am PDT
Clear
Clear
 Wind from NW
Wind: NW 8 mph , 13 km/h
Temperature: 57°F , 14°C
Dew Point: 52°F , 11°C
Humidity: 82%
Barometer: 29.94 inHg , 1013.9 hPa
Clouds: Clear
Visibility: 10 miles , 16 km
2024/05/19 07:55 KSCK 190755Z 31007KT 10SM CLR 14/11 A2994 RMK AO2 SLP137 T01390106 402780117
KO69 - Petaluma, California, USA
Distance from station: W 53mi, 61km
Updated: Sun, 19-May-2024 1:35am PDT
Overcast
Overcast
 Wind from calm
Wind: Calm
Temperature: 48°F , 9°C
Dew Point: 48°F , 9°C
Humidity: 100%
Barometer: 30.00 inHg , 1015.9 hPa
Clouds: Overcast
Visibility: 9 miles , 14 km
Cloud details: Overcast 1200 ft
2024/05/19 08:35 KO69 190835Z AUTO 00000KT 9SM OVC012 09/09 A3000 RMK A01
 
KSNS - Salinas, California, USA
Distance from station: SSE 54mi, 62km
Updated: Sun, 19-May-2024 12:53am PDT
Overcast
Overcast
 Wind from NW
Wind: NW 7 mph , 11 km/h
Temperature: 55°F , 13°C
Dew Point: 50°F , 10°C
Humidity: 82%
Barometer: 30.04 inHg , 1017.3 hPa
Clouds: Overcast
Visibility: 9 miles , 14 km
Cloud details: Overcast 1300 ft
2024/05/19 07:53 KSNS 190753Z AUTO 31006KT 9SM OVC013 13/10 A3004 RMK AO2 SLP181 T01280100 401780122
KMRY - Monterey, California, USA
Distance from station: SSE 54mi, 62km
Updated: Sun, 19-May-2024 12:54am PDT
Overcast
Overcast
 Wind from WSW
Wind: WSW 8 mph , 13 km/h
Temperature: 54°F , 12°C
Dew Point: 48°F , 9°C
Humidity: 82%
Barometer: 30.05 inHg , 1017.6 hPa
Clouds: Overcast
Visibility: 10 miles , 16 km
Cloud details: Overcast 1100 ft
2024/05/19 07:54 KMRY 190754Z AUTO 24007KT 10SM OVC011 12/09 A3005 RMK AO2 SLP188 T01220094 401720117
 
KVCB - Vacaville, California, USA
Distance from station: NE 55mi, 63km
Updated: Sun, 19-May-2024 12:53am PDT
Clear
Clear
 Wind from SSW
Wind: SSW 12 mph , 19 km/h, Gust: 23 mph , 37 km/h
Temperature: 57°F , 14°C
Dew Point: 48°F , 9°C
Humidity: 72%
Barometer: 29.89 inHg , 1012.2 hPa
Clouds: Clear
Visibility: 10 miles , 16 km
2024/05/19 07:53 KVCB 190753Z AUTO 21010G20KT 10SM CLR 14/09 A2989 RMK AO2 SLP122 T01390089 402720133
KMOD - Modesto, California, USA
Distance from station: E 56mi, 64km
Updated: Sun, 19-May-2024 12:53am PDT
Clear
Clear
 Wind from NNW
Wind: NNW 10 mph , 17 km/h
Temperature: 57°F , 14°C
Dew Point: 50°F , 10°C
Humidity: 77%
Barometer: 29.93 inHg , 1013.5 hPa
Clouds: Clear
Visibility: 10 miles , 16 km
2024/05/19 07:53 KMOD 190753Z AUTO 34009KT 10SM CLR 14/10 A2993 RMK AO2 SLP134 T01440100 402890128
 
KEDU - Davis, California, USA
Distance from station: NE 66mi, 76km
Updated: Sun, 19-May-2024 1:35am PDT
Clear
Clear
 Wind from calm
Wind: Calm
Temperature: 54°F , 12°C
Dew Point: 50°F , 10°C
Humidity: 88%
Barometer: 29.90 inHg , 1012.5 hPa
Clouds: Clear
Visibility: 10 miles , 16 km
2024/05/19 08:35 KEDU 190835Z AUTO 00000KT 10SM CLR 12/10 A2990 RMK AO1
KSAC - Sacramento, California, USA
Distance from station: NE 70mi, 81km
Updated: Sun, 19-May-2024 12:53am PDT
Clear
Clear
 Wind from S
Wind: S 8 mph , 13 km/h
Temperature: 54°F , 12°C
Dew Point: 48°F , 9°C
Humidity: 82%
Barometer: 29.92 inHg , 1013.2 hPa
Clouds: Clear
Visibility: 10 miles , 16 km
2024/05/19 07:53 KSAC 190753Z AUTO 19007KT 10SM CLR 12/09 A2992 RMK AO2 SLP133 T01170089 402500117
 
KSTS - Santa Rosa, California, USA
Distance from station: NW 71mi, 82km
Updated: Sun, 19-May-2024 1:18am PDT
Overcast
Overcast
 Wind from S
Wind: S 3 mph , 6 km/h
Temperature: 52°F , 11°C
Dew Point: 48°F , 9°C
Humidity: 88%
Barometer: 29.99 inHg , 1015.6 hPa
Clouds: Overcast
Visibility: 8 miles , 13 km
Cloud details: Overcast 1000 ft
2024/05/19 08:18 KSTS 190818Z AUTO 18003KT 8SM OVC010 11/09 A2999 RMK AO2 T01110089
KMHR - Mather Field, California, USA
Distance from station: ENE 76mi, 88km
Updated: Sun, 19-May-2024 1:35am PDT
Clear
Clear
 Wind from S
Wind: S 8 mph , 13 km/h
Temperature: 52°F , 11°C
Dew Point: 48°F , 9°C
Humidity: 88%
Barometer: 29.93 inHg , 1013.5 hPa
Clouds: Clear
Visibility: 10 miles , 16 km
2024/05/19 08:35 KMHR 190835Z AUTO 17007KT 10SM CLR 11/09 A2993 RMK A01
 
KSMF - Sacramento/Metro, California, USA
Distance from station: NE 78mi, 90km
Updated: Sun, 19-May-2024 12:53am PDT
Clear
Clear
 Wind from S
Wind: S 16 mph , 26 km/h, Gust: 24 mph , 39 km/h
Temperature: 55°F , 13°C
Dew Point: 48°F , 9°C
Humidity: 77%
Barometer: 29.90 inHg , 1012.5 hPa
Clouds: Clear
Visibility: 10 miles , 16 km
2024/05/19 07:53 KSMF 190753Z 17014G21KT 10SM CLR 13/09 A2990 RMK AO2 SLP124 T01280094 402780128
KMCC - Mcclellan Afb, California, USA
Distance from station: NE 80mi, 92km
Updated: Sun, 19-May-2024 1:35am PDT
Clear
Clear
 Wind from S
Wind: S 10 mph , 17 km/h, Gust: 18 mph , 30 km/h
Temperature: 54°F , 12°C
Dew Point: 48°F , 9°C
Humidity: 82%
Barometer: 29.93 inHg , 1013.5 hPa
Clouds: Clear
Visibility: 9 miles , 14 km
2024/05/19 08:35 KMCC 190835Z AUTO 17009G16KT 9SM CLR 12/09 A2993 RMK AO2
 
KNKX - Miramar MCAS (Joe Foss Field) Airport, California, USA
Distance from station: SE 368mi, 423km
Updated: Sun, 19-May-2024 12:55am PDT
Overcast
Overcast
 Wind from calm
Wind: Calm
Temperature: 57°F , 14°C
Dew Point: 54°F , 12°C
Humidity: 88%
Barometer: 30.03 inHg , 1016.9 hPa
Clouds: Overcast
Visibility: 10 miles , 16 km
Cloud details: Overcast 1200 ft
2024/05/19 07:55 KNKX 190755Z 00000KT 10SM OVC012 14/12 A3003 RMK AO2 SLP165 T01390117 402110117
KMYF - Montgomery-Gibbs Executive Airport, California, USA
Distance from station: SE 371mi, 427km
Updated: Sun, 19-May-2024 12:53am PDT
Overcast
Overcast
 Wind from W
Wind: W 3 mph , 6 km/h
Temperature: 59°F , 15°C
Dew Point: 54°F , 12°C
Humidity: 82%
Barometer: 30.04 inHg , 1017.3 hPa
Clouds: Overcast
Visibility: 10 miles , 16 km
Cloud details: Overcast 1200 ft
2024/05/19 07:53 KMYF 190753Z AUTO 28003KT 10SM OVC012 15/12 A3004 RMK AO2 SLP169 T01500117 402220144